createdAt,value
2022-08-11T00:00:44.567Z,93.81
2022-08-11T00:01:49.797Z,93.80
2022-08-11T00:02:53.416Z,93.21
2022-08-11T00:04:05.838Z,96.00
2022-08-11T00:05:13.876Z,95.87
2022-08-11T00:06:35.187Z,95.80
2022-08-11T00:07:46.479Z,95.44
2022-08-11T00:08:51.092Z,95.53
2022-08-11T00:09:54.702Z,95.38
2022-08-11T00:11:07.876Z,95.47
2022-08-11T00:12:16.042Z,95.41
2022-08-11T00:13:19.210Z,95.87
2022-08-11T00:14:23.479Z,96.33
2022-08-11T00:15:28.509Z,95.68
2022-08-11T00:16:31.846Z,95.96
2022-08-11T00:17:34.688Z,96.17
2022-08-11T00:18:45.067Z,96.62
2022-08-11T00:20:14.684Z,96.57
2022-08-11T00:21:13.484Z,97.86
2022-08-11T00:22:23.481Z,98.47
2022-08-11T00:23:27.738Z,98.48
2022-08-11T00:24:53.311Z,98.39
2022-08-11T00:25:58.072Z,98.45
2022-08-11T00:27:00.976Z,99.20
2022-08-11T00:28:04.008Z,100.00
2022-08-11T00:29:11.216Z,100.00
2022-08-11T00:30:15.998Z,100.00
2022-08-11T00:31:31.693Z,100.00
2022-08-11T00:32:35.120Z,100.00
2022-08-11T00:33:44.915Z,100.00
2022-08-11T00:34:48.748Z,100.00
2022-08-11T00:35:57.834Z,100.00
2022-08-11T00:37:06.332Z,100.00
2022-08-11T00:38:09.895Z,100.00
2022-08-11T00:39:14.350Z,100.00
2022-08-11T00:40:25.796Z,100.00
2022-08-11T00:42:05.321Z,100.00
2022-08-11T00:43:32.209Z,100.00
2022-08-11T00:44:45.140Z,100.00
2022-08-11T00:46:10.237Z,100.00
2022-08-11T00:47:35.168Z,100.00
2022-08-11T00:48:55.340Z,100.00
2022-08-11T00:50:18.705Z,100.00
2022-08-11T00:52:02.389Z,99.75
2022-08-11T00:53:26.165Z,99.89
2022-08-11T00:54:49.963Z,99.85
2022-08-11T00:56:22.483Z,100.00
2022-08-11T00:57:38.393Z,100.00
2022-08-11T00:59:35.051Z,100.00
2022-08-11T01:01:05.464Z,100.00
2022-08-11T01:02:37.102Z,100.00
2022-08-11T01:04:17.463Z,100.00
2022-08-11T01:05:46.015Z,100.00
2022-08-11T01:07:14.122Z,100.00
2022-08-11T01:08:28.224Z,100.00
2022-08-11T01:09:49.087Z,100.00
2022-08-11T01:11:20.960Z,100.00
2022-08-11T01:12:49.854Z,100.00
2022-08-11T01:14:12.869Z,100.00
2022-08-11T01:15:55.989Z,100.00
2022-08-11T01:17:18.261Z,100.00
2022-08-11T01:18:47.764Z,100.00
2022-08-11T01:20:45.574Z,100.00
2022-08-11T01:21:18.130Z,100.00
2022-08-11T01:22:23.623Z,100.00
2022-08-11T01:23:44.405Z,100.00
2022-08-11T01:25:20.924Z,100.00
2022-08-11T01:26:44.073Z,100.00
2022-08-11T01:28:11.160Z,100.00
2022-08-11T01:29:49.153Z,100.00
2022-08-11T01:31:29.513Z,100.00
2022-08-11T01:32:37.889Z,100.00
2022-08-11T01:34:34.186Z,100.00
2022-08-11T01:36:06.909Z,100.00
2022-08-11T01:37:42.823Z,100.00
2022-08-11T01:38:59.839Z,100.00
2022-08-11T01:40:08.290Z,100.00
2022-08-11T01:41:47.098Z,100.00
2022-08-11T01:43:34.128Z,100.00
2022-08-11T01:45:03.277Z,100.00
2022-08-11T01:46:32.569Z,100.00
2022-08-11T01:48:05.102Z,100.00
2022-08-11T01:50:08.778Z,100.00
2022-08-11T01:50:42.837Z,100.00
2022-08-11T01:51:54.040Z,100.00
2022-08-11T01:53:17.597Z,100.00
2022-08-11T01:54:59.067Z,100.00
2022-08-11T01:56:19.324Z,100.00
2022-08-11T01:57:40.026Z,100.00
2022-08-11T01:59:00.469Z,100.00
2022-08-11T02:00:15.382Z,100.00
2022-08-11T02:01:20.386Z,100.00
2022-08-11T02:02:54.074Z,100.00
2022-08-11T02:04:17.404Z,100.00
2022-08-11T02:05:22.429Z,100.00
2022-08-11T02:06:55.271Z,100.00
2022-08-11T02:08:09.984Z,100.00
2022-08-11T02:09:29.117Z,100.00
2022-08-11T02:11:16.741Z,100.00
2022-08-11T02:12:39.856Z,100.00
2022-08-11T02:13:59.067Z,100.00
2022-08-11T02:15:10.035Z,100.00
2022-08-11T02:16:45.325Z,100.00
2022-08-11T02:17:54.882Z,100.00
2022-08-11T02:19:55.127Z,100.00
2022-08-11T02:21:21.176Z,100.00
2022-08-11T02:23:05.053Z,100.00
2022-08-11T02:24:20.874Z,100.00
2022-08-11T02:25:36.035Z,100.00
2022-08-11T02:27:02.325Z,100.00
2022-08-11T02:28:08.825Z,100.00
2022-08-11T02:29:25.640Z,100.00
2022-08-11T02:30:36.711Z,100.00
2022-08-11T02:32:28.687Z,100.00
2022-08-11T02:33:38.044Z,100.00
2022-08-11T02:34:59.936Z,100.00
2022-08-11T02:36:21.225Z,100.00
2022-08-11T02:37:32.417Z,100.00
2022-08-11T02:38:45.641Z,100.00
2022-08-11T02:40:00.454Z,100.00
2022-08-11T02:41:58.847Z,100.00
2022-08-11T02:43:40.566Z,100.00
2022-08-11T02:45:07.047Z,100.00
2022-08-11T02:46:24.590Z,100.00
2022-08-11T02:48:04.748Z,100.00
2022-08-11T02:49:44.614Z,100.00
2022-08-11T02:51:04.669Z,100.00
2022-08-11T02:52:48.718Z,100.00
2022-08-11T02:54:07.276Z,100.00
2022-08-11T02:55:48.953Z,100.00
2022-08-11T02:57:18.080Z,100.00
2022-08-11T02:58:37.157Z,100.00
2022-08-11T02:59:51.337Z,100.00
2022-08-11T03:01:12.732Z,100.00
2022-08-11T03:02:31.324Z,100.00
2022-08-11T03:03:44.015Z,100.00
2022-08-11T03:05:08.173Z,100.00
2022-08-11T03:06:26.925Z,100.00
2022-08-11T03:07:40.138Z,100.00
2022-08-11T03:09:10.789Z,100.00
2022-08-11T03:10:41.453Z,100.00
2022-08-11T03:12:25.025Z,100.00
2022-08-11T03:13:52.871Z,100.00
2022-08-11T03:15:28.716Z,100.00
2022-08-11T03:16:56.716Z,100.00
2022-08-11T03:18:17.063Z,100.00
2022-08-11T03:19:44.126Z,100.00
2022-08-11T03:20:58.627Z,100.00
2022-08-11T03:22:23.377Z,100.00
2022-08-11T03:23:57.411Z,100.00
2022-08-11T03:25:31.801Z,100.00
2022-08-11T03:27:07.277Z,100.00
2022-08-11T03:28:21.676Z,100.00
2022-08-11T03:29:51.279Z,100.00
2022-08-11T03:31:27.357Z,100.00
2022-08-11T03:32:36.183Z,100.00
2022-08-11T03:34:07.841Z,100.00
2022-08-11T03:35:20.083Z,100.00
2022-08-11T03:36:54.714Z,100.00
2022-08-11T03:38:11.685Z,100.00
2022-08-11T03:39:56.401Z,100.00
2022-08-11T03:42:03.381Z,100.00
2022-08-11T03:43:18.787Z,100.00
2022-08-11T03:44:41.655Z,100.00
2022-08-11T03:45:56.355Z,100.00
2022-08-11T03:47:04.321Z,100.00
2022-08-11T03:48:30.023Z,100.00
2022-08-11T03:49:50.893Z,100.00
2022-08-11T03:51:02.979Z,100.00
2022-08-11T03:52:37.681Z,100.00
2022-08-11T03:54:18.945Z,100.00
2022-08-11T03:55:55.218Z,100.00
2022-08-11T03:57:34.848Z,100.00
2022-08-11T03:58:58.215Z,100.00
2022-08-11T04:00:11.076Z,100.00
2022-08-11T04:01:34.859Z,100.00
2022-08-11T04:02:55.902Z,100.00
2022-08-11T04:04:16.234Z,100.00
2022-08-11T04:05:33.596Z,100.00
2022-08-11T04:07:03.932Z,100.00
2022-08-11T04:08:08.801Z,100.00
2022-08-11T04:09:35.629Z,100.00
2022-08-11T04:10:49.763Z,100.00
2022-08-11T04:12:36.731Z,100.00
2022-08-11T04:14:37.872Z,100.00
2022-08-11T04:16:12.167Z,100.00
2022-08-11T04:17:48.317Z,100.00
2022-08-11T04:19:11.058Z,100.00
2022-08-11T04:20:31.366Z,100.00
2022-08-11T04:21:57.569Z,100.00
2022-08-11T04:24:36.728Z,100.00
2022-08-11T04:25:03.141Z,100.00
2022-08-11T04:26:42.753Z,100.00
2022-08-11T04:27:56.964Z,100.00
2022-08-11T04:29:20.710Z,100.00
2022-08-11T04:30:28.799Z,100.00
2022-08-11T04:31:51.199Z,100.00
2022-08-11T04:33:34.317Z,100.00
2022-08-11T04:34:49.470Z,100.00
2022-08-11T04:36:10.272Z,100.00
2022-08-11T04:37:36.952Z,100.00
2022-08-11T04:38:54.002Z,97.45
2022-08-11T04:40:33.725Z,93.37
2022-08-11T04:42:31.880Z,87.01
2022-08-11T04:44:02.691Z,78.15
2022-08-11T04:45:58.600Z,69.51
2022-08-11T04:48:01.825Z,66.62
2022-08-11T04:49:56.654Z,64.96
2022-08-11T04:51:48.997Z,61.03
2022-08-11T04:53:27.933Z,51.39
2022-08-11T04:55:09.936Z,48.85
2022-08-11T04:56:37.478Z,46.17
2022-08-11T04:58:20.337Z,44.36
2022-08-11T05:00:07.315Z,43.08
2022-08-11T05:01:39.010Z,42.45
2022-08-11T05:02:59.591Z,41.70
2022-08-11T05:04:39.167Z,41.83
2022-08-11T05:05:57.681Z,41.68
2022-08-11T05:07:16.647Z,39.87
2022-08-11T05:08:54.269Z,39.11
2022-08-11T05:10:19.569Z,38.87
2022-08-11T05:12:01.562Z,37.86
2022-08-11T05:13:27.894Z,37.11
2022-08-11T05:14:52.986Z,36.97
2022-08-11T05:16:17.214Z,37.16
2022-08-11T05:17:49.653Z,36.60
2022-08-11T05:19:12.063Z,36.96
2022-08-11T05:20:37.796Z,36.51
2022-08-11T05:22:01.816Z,37.10
2022-08-11T05:23:25.374Z,36.96
2022-08-11T05:24:57.381Z,36.42
2022-08-11T05:26:47.744Z,36.81
2022-08-11T05:28:23.726Z,35.38
2022-08-11T05:30:03.764Z,34.95
2022-08-11T05:31:36.718Z,34.73
2022-08-11T05:33:02.353Z,34.60
2022-08-11T05:34:35.811Z,34.27
2022-08-11T05:36:00.825Z,33.91
2022-08-11T05:37:26.199Z,33.48
2022-08-11T05:38:52.271Z,33.84
2022-08-11T05:40:31.234Z,33.24
2022-08-11T05:41:52.763Z,32.38
2022-08-11T05:43:19.983Z,33.87
2022-08-11T05:44:41.228Z,33.29
2022-08-11T05:46:06.265Z,32.75
2022-08-11T05:47:29.367Z,32.16
2022-08-11T05:48:55.110Z,33.56
2022-08-11T05:50:16.218Z,32.13
2022-08-11T05:51:38.086Z,32.43
2022-08-11T05:53:04.704Z,33.92
2022-08-11T05:54:28.844Z,35.02
2022-08-11T05:56:02.072Z,34.83
2022-08-11T05:57:07.161Z,33.98
2022-08-11T05:58:12.040Z,33.79
2022-08-11T05:59:19.039Z,33.75
2022-08-11T06:00:24.219Z,35.54
2022-08-11T06:01:34.431Z,35.50
2022-08-11T06:02:46.475Z,36.50
2022-08-11T06:04:10.743Z,35.62
2022-08-11T06:05:14.125Z,35.78
2022-08-11T06:06:16.621Z,36.66
2022-08-11T06:07:26.598Z,36.00
2022-08-11T06:08:33.306Z,36.76
2022-08-11T06:09:38.235Z,35.30
2022-08-11T06:10:45.023Z,35.96
2022-08-11T06:11:47.560Z,35.39
2022-08-11T06:12:53.487Z,35.20
2022-08-11T06:13:57.529Z,34.50
2022-08-11T06:15:11.709Z,35.22
2022-08-11T06:16:20.994Z,35.21
2022-08-11T06:17:26.745Z,35.35
2022-08-11T06:18:47.715Z,35.05
2022-08-11T06:19:52.763Z,34.24
2022-08-11T06:20:57.380Z,35.00
2022-08-11T06:22:01.934Z,35.94
2022-08-11T06:23:06.715Z,36.80
2022-08-11T06:24:12.988Z,36.51
2022-08-11T06:25:16.963Z,34.67
2022-08-11T06:26:20.464Z,33.50
2022-08-11T06:27:24.976Z,30.73
2022-08-11T06:28:35.973Z,33.78
2022-08-11T06:29:47.586Z,34.49
2022-08-11T06:30:50.730Z,35.76
2022-08-11T06:32:01.820Z,36.28
2022-08-11T06:33:08.051Z,35.08
2022-08-11T06:34:27.436Z,33.90
2022-08-11T06:35:48.483Z,32.73
2022-08-11T06:37:14.850Z,34.45
2022-08-11T06:38:26.141Z,34.95
2022-08-11T06:39:59.364Z,36.12
2022-08-11T06:41:26.044Z,36.09
2022-08-11T06:42:44.812Z,35.63
2022-08-11T06:44:03.244Z,36.75
2022-08-11T06:45:20.990Z,36.82
2022-08-11T06:46:29.866Z,34.94
2022-08-11T06:47:33.004Z,34.34
2022-08-11T06:48:39.854Z,35.64
2022-08-11T06:50:06.217Z,35.97
2022-08-11T06:51:13.661Z,35.68
2022-08-11T06:52:35.181Z,34.65
2022-08-11T06:54:03.491Z,34.27
2022-08-11T06:55:55.526Z,36.73
2022-08-11T06:57:30.293Z,37.42
2022-08-11T06:58:59.609Z,37.62
2022-08-11T07:00:24.087Z,35.86
2022-08-11T07:01:29.269Z,35.75
2022-08-11T07:02:37.292Z,38.22
2022-08-11T07:03:45.420Z,40.95
2022-08-11T07:05:02.631Z,45.25
2022-08-11T07:06:25.532Z,49.44
2022-08-11T07:08:33.538Z,54.29
2022-08-11T07:10:22.808Z,59.58
2022-08-11T07:12:02.189Z,62.33
2022-08-11T07:13:39.428Z,63.75
2022-08-11T07:15:09.954Z,64.60
2022-08-11T07:16:19.321Z,63.18
2022-08-11T07:17:32.179Z,60.85
2022-08-11T07:18:54.952Z,61.42
2022-08-11T07:20:19.911Z,63.54
2022-08-11T07:22:06.470Z,64.50
2022-08-11T07:23:29.020Z,65.04
2022-08-11T07:25:04.918Z,64.00
2022-08-11T07:26:26.873Z,64.28
2022-08-11T07:28:09.411Z,64.58
2022-08-11T07:29:14.585Z,65.18
2022-08-11T07:30:17.643Z,63.95
2022-08-11T07:31:37.260Z,63.02
2022-08-11T07:32:51.451Z,60.14
2022-08-11T07:34:15.900Z,61.38
2022-08-11T07:35:49.910Z,60.51
2022-08-11T07:37:00.619Z,60.31
2022-08-11T07:38:07.958Z,60.67
2022-08-11T07:39:16.720Z,60.21
2022-08-11T07:40:24.080Z,60.28
2022-08-11T07:41:31.086Z,57.34
2022-08-11T07:42:38.430Z,56.65
2022-08-11T07:43:42.941Z,54.21
2022-08-11T07:45:05.425Z,53.08
2022-08-11T07:46:27.458Z,54.80
2022-08-11T07:47:48.581Z,57.57
2022-08-11T07:49:11.333Z,58.62
2022-08-11T07:50:33.681Z,58.08
2022-08-11T07:51:56.719Z,57.08
2022-08-11T07:53:00.799Z,56.40
2022-08-11T07:54:16.488Z,56.74
2022-08-11T07:55:49.261Z,55.27
2022-08-11T07:56:55.383Z,56.42
2022-08-11T07:58:29.982Z,55.80
2022-08-11T08:00:04.276Z,54.68
2022-08-11T08:01:43.236Z,53.66
2022-08-11T08:03:05.149Z,53.77
2022-08-11T08:04:29.695Z,54.66
2022-08-11T08:05:52.151Z,53.69
2022-08-11T08:07:14.218Z,51.55
2022-08-11T08:08:35.875Z,53.06
2022-08-11T08:09:57.715Z,51.97
2022-08-11T08:11:27.200Z,50.97
2022-08-11T08:12:50.131Z,51.91
2022-08-11T08:14:12.900Z,50.70
2022-08-11T08:15:35.682Z,50.87
2022-08-11T08:16:57.942Z,49.79
2022-08-11T08:18:09.549Z,50.24
2022-08-11T08:19:25.051Z,50.04
2022-08-11T08:20:30.978Z,48.32
2022-08-11T08:21:34.671Z,49.19
2022-08-11T08:22:39.344Z,47.47
2022-08-11T08:23:46.574Z,46.97
2022-08-11T08:24:49.787Z,46.05
2022-08-11T08:25:52.507Z,47.25
2022-08-11T08:27:01.339Z,48.23
2022-08-11T08:28:11.007Z,47.22
2022-08-11T08:29:32.695Z,48.05
2022-08-11T08:30:50.402Z,47.68
2022-08-11T08:31:53.819Z,48.33
2022-08-11T08:32:59.029Z,48.78
2022-08-11T08:34:01.566Z,48.93
2022-08-11T08:35:05.002Z,47.93
2022-08-11T08:36:18.592Z,46.93
2022-08-11T08:37:45.882Z,46.84
2022-08-11T08:38:54.146Z,46.94
2022-08-11T08:39:59.257Z,47.24
2022-08-11T08:41:02.568Z,47.38
2022-08-11T08:42:12.704Z,47.27
2022-08-11T08:43:18.372Z,45.95
2022-08-11T08:44:40.930Z,46.00
2022-08-11T08:45:45.149Z,45.71
2022-08-11T08:46:59.355Z,45.50
2022-08-11T08:48:10.967Z,46.36
2022-08-11T08:49:19.344Z,47.08
2022-08-11T08:50:27.683Z,47.15
2022-08-11T08:51:58.596Z,47.47
2022-08-11T08:53:04.009Z,46.65
2022-08-11T08:54:09.163Z,47.71
2022-08-11T08:55:17.928Z,47.63
2022-08-11T08:56:28.150Z,47.35
2022-08-11T08:57:39.272Z,46.67
2022-08-11T08:58:44.812Z,46.57
2022-08-11T08:59:51.464Z,45.82
2022-08-11T09:00:56.634Z,45.80
2022-08-11T09:02:02.763Z,46.17
2022-08-11T09:03:22.779Z,45.95
2022-08-11T09:04:27.656Z,45.58
2022-08-11T09:05:30.229Z,45.45
2022-08-11T09:06:34.315Z,45.57
2022-08-11T09:07:39.968Z,46.09
2022-08-11T09:08:44.311Z,45.36
2022-08-11T09:09:53.397Z,44.42
2022-08-11T09:11:14.983Z,44.60
2022-08-11T09:12:36.103Z,44.75
2022-08-11T09:13:44.339Z,43.85
2022-08-11T09:15:03.632Z,43.56
2022-08-11T09:16:11.289Z,43.77
2022-08-11T09:17:14.305Z,42.70
2022-08-11T09:18:18.003Z,43.16
2022-08-11T09:19:21.829Z,42.57
2022-08-11T09:20:26.917Z,41.48
2022-08-11T09:21:46.253Z,42.19
2022-08-11T09:24:59.003Z,41.94
2022-08-11T09:26:20.580Z,42.37
2022-08-11T09:27:23.768Z,41.99
2022-08-11T09:28:30.601Z,42.44
2022-08-11T09:29:33.689Z,42.73
2022-08-11T09:30:36.912Z,41.95
2022-08-11T09:31:40.465Z,40.88
2022-08-11T09:32:43.188Z,41.95
2022-08-11T09:33:46.543Z,40.54
2022-08-11T09:34:52.048Z,40.14
2022-08-11T09:35:55.340Z,39.58
2022-08-11T09:37:28.238Z,39.43
2022-08-11T09:38:59.914Z,39.75
2022-08-11T09:40:22.968Z,39.56
2022-08-11T09:42:01.907Z,39.26
2022-08-11T09:43:11.533Z,40.55
2022-08-11T09:44:32.582Z,40.39
2022-08-11T09:45:40.229Z,39.51
2022-08-11T09:46:43.934Z,37.56
2022-08-11T09:47:47.073Z,38.57
2022-08-11T09:48:49.790Z,39.42
2022-08-11T09:50:03.320Z,39.25
2022-08-11T09:51:08.725Z,39.15
2022-08-11T09:52:13.778Z,37.82
2022-08-11T09:53:36.020Z,37.59
2022-08-11T09:54:42.768Z,37.69
2022-08-11T09:55:51.506Z,36.06
2022-08-11T09:57:13.244Z,35.84
2022-08-11T09:58:41.693Z,35.80
2022-08-11T09:59:41.455Z,35.33
2022-08-11T10:00:47.710Z,34.17
2022-08-11T10:01:57.112Z,34.43
2022-08-11T10:03:02.695Z,33.81
2022-08-11T10:04:17.857Z,34.08
2022-08-11T10:05:39.890Z,35.16
2022-08-11T10:07:04.191Z,34.70
2022-08-11T10:08:11.489Z,34.83
2022-08-11T10:09:19.798Z,34.46
2022-08-11T10:10:23.526Z,33.90
2022-08-11T10:11:27.714Z,34.20
2022-08-11T10:12:36.018Z,33.50
2022-08-11T10:14:32.760Z,32.67
2022-08-11T10:15:34.423Z,32.42
2022-08-11T10:16:41.248Z,32.72
2022-08-11T10:18:05.728Z,31.59
2022-08-11T10:19:10.340Z,32.07
2022-08-11T10:20:12.960Z,32.32
2022-08-11T10:21:28.278Z,32.52
2022-08-11T10:22:49.974Z,32.52
2022-08-11T10:24:12.077Z,32.88
2022-08-11T10:25:34.735Z,31.95
2022-08-11T10:27:00.175Z,31.90
2022-08-11T10:28:28.841Z,31.65
2022-08-11T10:29:54.930Z,32.19
2022-08-11T10:31:17.793Z,31.48
2022-08-11T10:32:57.315Z,31.93
2022-08-11T10:34:04.046Z,31.26
2022-08-11T10:35:09.133Z,31.34
2022-08-11T10:36:16.319Z,31.05
2022-08-11T10:37:23.183Z,31.47
2022-08-11T10:38:27.624Z,30.80
2022-08-11T10:39:30.173Z,30.69
2022-08-11T10:40:32.719Z,30.72
2022-08-11T10:42:03.402Z,30.13
2022-08-11T10:43:14.314Z,30.10
2022-08-11T10:44:20.485Z,30.12
2022-08-11T10:45:43.219Z,30.34
2022-08-11T10:47:05.226Z,30.68
2022-08-11T10:48:10.988Z,29.77
2022-08-11T10:49:18.835Z,30.25
2022-08-11T10:50:40.448Z,30.60
2022-08-11T10:52:01.978Z,30.45
2022-08-11T10:53:23.820Z,30.74
2022-08-11T10:54:45.189Z,30.77
2022-08-11T10:56:07.243Z,29.84
2022-08-11T10:57:28.943Z,30.06
2022-08-11T10:58:47.678Z,30.20
2022-08-11T10:59:50.372Z,31.12
2022-08-11T11:00:56.881Z,30.47
2022-08-11T11:02:00.471Z,30.41
2022-08-11T11:03:23.305Z,30.27
2022-08-11T11:04:35.867Z,30.85
2022-08-11T11:06:27.870Z,30.58
2022-08-11T11:07:17.577Z,30.51
2022-08-11T11:08:46.045Z,30.02
2022-08-11T11:09:50.599Z,29.93
2022-08-11T11:10:53.499Z,30.29
2022-08-11T11:12:30.371Z,29.30
2022-08-11T11:13:53.372Z,29.06
2022-08-11T11:15:18.130Z,29.03
2022-08-11T11:16:40.819Z,28.85
2022-08-11T11:17:56.096Z,28.80
2022-08-11T11:19:04.152Z,28.86
2022-08-11T11:20:07.880Z,29.21
2022-08-11T11:21:32.062Z,28.40
2022-08-11T11:22:38.527Z,28.21
2022-08-11T11:23:56.101Z,28.39
2022-08-11T11:25:30.702Z,27.67
2022-08-11T11:26:40.562Z,28.11
2022-08-11T11:28:14.082Z,28.21
2022-08-11T11:29:38.026Z,28.24
2022-08-11T11:30:56.997Z,28.03
2022-08-11T11:32:23.869Z,28.19
2022-08-11T11:34:06.499Z,28.19
2022-08-11T11:35:34.369Z,27.71
2022-08-11T11:36:36.568Z,28.02
2022-08-11T11:37:40.802Z,28.06
2022-08-11T11:39:03.237Z,27.47
2022-08-11T11:40:17.367Z,26.65
2022-08-11T11:41:25.656Z,27.03
2022-08-11T11:42:28.936Z,27.04
2022-08-11T11:43:35.485Z,27.96
2022-08-11T11:44:39.241Z,27.28
2022-08-11T11:45:42.355Z,27.36
2022-08-11T11:46:45.787Z,27.19
2022-08-11T11:47:53.772Z,27.53
2022-08-11T11:48:58.774Z,27.21
2022-08-11T11:50:01.488Z,26.74
2022-08-11T11:51:04.656Z,27.04
2022-08-11T11:52:08.939Z,26.97
2022-08-11T11:53:12.447Z,27.26
2022-08-11T11:54:16.110Z,27.68
2022-08-11T11:55:19.570Z,28.03
2022-08-11T11:56:25.472Z,28.03
2022-08-11T11:57:58.506Z,27.82
2022-08-11T11:59:21.775Z,27.64
2022-08-11T12:00:43.581Z,27.80
2022-08-11T12:01:50.100Z,27.38
2022-08-11T12:03:13.402Z,26.66
2022-08-11T12:04:18.180Z,26.91
2022-08-11T12:05:22.140Z,26.64
2022-08-11T12:06:27.527Z,26.75
2022-08-11T12:07:56.877Z,27.02
2022-08-11T12:09:15.760Z,27.02
2022-08-11T12:10:18.670Z,27.08
2022-08-11T12:11:43.678Z,27.28
2022-08-11T12:13:05.304Z,27.22
2022-08-11T12:14:10.821Z,27.44
2022-08-11T12:15:13.829Z,27.04
2022-08-11T12:16:34.025Z,27.37
2022-08-11T12:17:39.677Z,27.27
2022-08-11T12:18:45.744Z,27.43
2022-08-11T12:19:49.516Z,27.13
2022-08-11T12:20:51.926Z,27.35
2022-08-11T12:22:16.823Z,27.26
2022-08-11T12:23:38.007Z,27.30
2022-08-11T12:25:04.605Z,27.74
2022-08-11T12:26:27.196Z,27.22
2022-08-11T12:27:30.907Z,27.31
2022-08-11T12:28:34.421Z,26.92
2022-08-11T12:29:39.926Z,27.41
2022-08-11T12:30:49.469Z,27.26
2022-08-11T12:31:58.006Z,27.03
2022-08-11T12:33:00.533Z,27.31
2022-08-11T12:34:09.258Z,27.13
2022-08-11T12:35:15.050Z,26.92
2022-08-11T12:36:19.351Z,26.34
2022-08-11T12:37:36.618Z,26.45
2022-08-11T12:38:39.079Z,26.18
2022-08-11T12:40:16.002Z,26.01
2022-08-11T12:41:49.302Z,25.46
2022-08-11T12:43:38.467Z,26.80
2022-08-11T12:45:00.357Z,27.49
2022-08-11T12:46:06.510Z,27.38
2022-08-11T12:47:09.893Z,27.23
2022-08-11T12:48:57.738Z,27.41
2022-08-11T12:50:23.138Z,27.05
2022-08-11T12:52:12.037Z,27.10
2022-08-11T12:53:12.449Z,27.57
2022-08-11T12:54:20.074Z,26.96
2022-08-11T12:56:00.532Z,26.85
2022-08-11T12:57:36.836Z,26.36
2022-08-11T12:58:42.804Z,26.39
2022-08-11T13:00:04.891Z,25.98
2022-08-11T13:01:26.068Z,26.72
2022-08-11T13:02:47.531Z,26.37
2022-08-11T13:04:09.016Z,26.07
2022-08-11T13:05:14.456Z,26.01
2022-08-11T13:06:17.557Z,26.54
2022-08-11T13:07:22.402Z,26.19
2022-08-11T13:08:26.707Z,26.17
2022-08-11T13:09:31.215Z,25.58
2022-08-11T13:10:52.862Z,25.79
2022-08-11T13:12:13.856Z,26.25
2022-08-11T13:13:54.948Z,26.42
2022-08-11T13:14:44.068Z,26.52
2022-08-11T13:15:49.743Z,26.19
2022-08-11T13:17:11.570Z,26.12
2022-08-11T13:18:17.901Z,26.46
2022-08-11T13:19:21.995Z,26.46
2022-08-11T13:20:25.793Z,26.44
2022-08-11T13:21:28.585Z,25.58
2022-08-11T13:22:32.588Z,25.81
2022-08-11T13:23:36.857Z,25.79
2022-08-11T13:24:40.493Z,25.73
2022-08-11T13:25:44.378Z,25.71
2022-08-11T13:26:50.498Z,25.99
2022-08-11T13:27:56.533Z,25.62
2022-08-11T13:29:02.649Z,25.45
2022-08-11T13:30:37.051Z,25.02
2022-08-11T13:31:42.841Z,25.46
2022-08-11T13:32:46.345Z,25.59
2022-08-11T13:33:51.743Z,25.21
2022-08-11T13:34:54.906Z,24.91
2022-08-11T13:35:57.749Z,24.71
2022-08-11T13:37:04.232Z,25.38
2022-08-11T13:38:27.280Z,25.39
2022-08-11T13:39:31.443Z,25.56
2022-08-11T13:40:54.780Z,25.50
2022-08-11T13:41:59.366Z,25.61
2022-08-11T13:43:01.738Z,25.21
2022-08-11T13:44:08.191Z,25.22
2022-08-11T13:45:11.471Z,25.04
2022-08-11T13:46:20.064Z,25.41
2022-08-11T13:47:24.819Z,25.33
2022-08-11T13:48:28.256Z,25.27
2022-08-11T13:49:40.907Z,25.80
2022-08-11T13:51:04.206Z,25.50
2022-08-11T13:52:12.792Z,25.47
2022-08-11T13:53:19.996Z,25.67
2022-08-11T13:54:26.108Z,25.19
2022-08-11T13:55:45.534Z,25.16
2022-08-11T13:56:54.883Z,24.91
2022-08-11T13:58:08.502Z,24.38
2022-08-11T13:59:23.860Z,24.57
2022-08-11T14:00:31.229Z,23.83
2022-08-11T14:02:03.855Z,23.87
2022-08-11T14:03:05.173Z,24.99
2022-08-11T14:04:30.469Z,25.09
2022-08-11T14:05:39.903Z,24.23
2022-08-11T14:06:52.305Z,25.16
2022-08-11T14:08:31.816Z,24.24
2022-08-11T14:09:42.441Z,24.13
2022-08-11T14:11:07.608Z,24.75
2022-08-11T14:12:52.303Z,24.51
2022-08-11T14:13:58.581Z,23.93
2022-08-11T14:15:10.212Z,23.96
2022-08-11T14:16:43.849Z,23.84
2022-08-11T14:17:52.199Z,24.55
2022-08-11T14:19:00.455Z,24.45
2022-08-11T14:20:38.037Z,24.14
2022-08-11T14:21:54.253Z,24.05
2022-08-11T14:22:57.842Z,24.29
2022-08-11T14:24:01.520Z,24.36
2022-08-11T14:25:04.319Z,24.19
2022-08-11T14:26:26.825Z,24.67
2022-08-11T14:28:34.036Z,24.93
2022-08-11T14:28:55.476Z,24.75
2022-08-11T14:29:58.837Z,24.53
2022-08-11T14:31:03.386Z,24.32
2022-08-11T14:32:08.681Z,24.27
2022-08-11T14:33:16.558Z,24.10
2022-08-11T14:34:23.082Z,24.02
2022-08-11T14:35:28.111Z,23.65
2022-08-11T14:36:43.165Z,23.67
2022-08-11T14:37:48.462Z,23.39
2022-08-11T14:38:51.392Z,24.03
2022-08-11T14:40:02.949Z,24.17
2022-08-11T14:41:26.420Z,24.07
2022-08-11T14:42:48.010Z,23.88
2022-08-11T14:44:13.666Z,24.27
2022-08-11T14:45:54.417Z,24.32
2022-08-11T14:47:05.645Z,24.31
2022-08-11T14:48:26.907Z,24.17
2022-08-11T14:49:29.949Z,24.10
2022-08-11T14:50:34.380Z,24.07
2022-08-11T14:51:36.947Z,23.84
2022-08-11T14:52:44.725Z,23.11
2022-08-11T14:53:58.409Z,23.85
2022-08-11T14:55:20.597Z,23.81
2022-08-11T14:56:38.376Z,23.66
2022-08-11T14:57:55.044Z,24.12
2022-08-11T14:58:59.700Z,24.83
2022-08-11T15:00:04.690Z,24.61
2022-08-11T15:01:27.411Z,23.96
2022-08-11T15:02:48.414Z,23.58
2022-08-11T15:04:29.778Z,23.93
2022-08-11T15:05:15.609Z,23.36
2022-08-11T15:06:18.511Z,23.91
2022-08-11T15:07:29.398Z,23.79
2022-08-11T15:08:54.728Z,23.64
2022-08-11T15:10:13.262Z,24.19
2022-08-11T15:11:39.430Z,24.05
2022-08-11T15:12:44.436Z,24.25
2022-08-11T15:13:46.780Z,23.97
2022-08-11T15:15:08.691Z,24.25
2022-08-11T15:16:29.571Z,23.56
2022-08-11T15:17:42.950Z,24.15
2022-08-11T15:18:46.289Z,23.79
2022-08-11T15:20:09.433Z,24.55
2022-08-11T15:21:30.101Z,24.18
2022-08-11T15:22:51.179Z,24.23
2022-08-11T15:24:12.272Z,24.09
2022-08-11T15:25:14.967Z,23.91
2022-08-11T15:26:42.748Z,24.18
2022-08-11T15:28:06.824Z,24.73
2022-08-11T15:29:28.952Z,24.88
2022-08-11T15:30:50.569Z,24.45
2022-08-11T15:32:11.663Z,24.29
2022-08-11T15:33:35.257Z,24.00
2022-08-11T15:35:03.676Z,23.68
2022-08-11T15:36:27.555Z,23.62
2022-08-11T15:37:31.985Z,23.92
2022-08-11T15:38:39.853Z,24.21
2022-08-11T15:40:08.726Z,24.18
2022-08-11T15:42:03.620Z,24.27
2022-08-11T15:43:45.012Z,23.44
2022-08-11T15:45:13.198Z,23.78
2022-08-11T15:46:29.412Z,24.10
2022-08-11T15:47:58.449Z,23.74
2022-08-11T15:49:21.961Z,23.82
2022-08-11T15:50:30.435Z,23.86
2022-08-11T15:52:15.863Z,24.00
2022-08-11T15:53:26.898Z,23.34
2022-08-11T15:54:32.262Z,23.47
2022-08-11T15:55:37.583Z,23.75
2022-08-11T15:56:43.874Z,23.87
2022-08-11T15:58:07.553Z,24.16
2022-08-11T15:59:43.239Z,24.04
2022-08-11T16:01:13.850Z,24.55
2022-08-11T16:02:39.280Z,24.14
2022-08-11T16:04:12.839Z,24.31
2022-08-11T16:05:45.914Z,24.17
2022-08-11T16:06:49.946Z,23.87
2022-08-11T16:07:55.480Z,23.89
2022-08-11T16:09:03.784Z,24.18
2022-08-11T16:10:24.917Z,23.69
2022-08-11T16:11:28.393Z,24.08
2022-08-11T16:13:05.097Z,24.21
2022-08-11T16:14:30.344Z,24.50
2022-08-11T16:15:58.882Z,24.85
2022-08-11T16:17:04.647Z,24.58
2022-08-11T16:18:08.832Z,25.13
2022-08-11T16:19:16.426Z,25.08
2022-08-11T16:20:23.288Z,24.95
2022-08-11T16:21:36.343Z,24.59
2022-08-11T16:22:55.212Z,25.10
2022-08-11T16:24:09.558Z,24.76
2022-08-11T16:27:03.734Z,24.77
2022-08-11T16:27:11.814Z,24.83
2022-08-11T16:28:16.906Z,25.06
2022-08-11T16:29:21.608Z,25.04
2022-08-11T16:30:25.484Z,24.95
2022-08-11T16:31:29.787Z,25.24
2022-08-11T16:32:34.767Z,25.14
2022-08-11T16:33:49.648Z,25.27
2022-08-11T16:35:18.522Z,24.68
2022-08-11T16:36:42.266Z,25.02
2022-08-11T16:38:05.340Z,25.15
2022-08-11T16:39:10.039Z,25.08
2022-08-11T16:40:13.307Z,25.39